CheckWX is a tool to help pilots better visualize weather data.  It is not intended as a substitute for an official pre-flight weather briefing.

21:00:31 UTC

KHST METAR
Homestead ARB Airport
Homestead, Florida, USA
Current

5 mins ago

KHST 202056Z AUTO 24012KT 10SM FEW060 28/13 A2995 RMK AO2 SLP145 T02760131 57017
Observed
Apr-20 @ 20:56 UTC
Wind
  • 240° at 12 KTS
Visibility
10 SM
Flight Rules
VFR
Cloud Levels
  • Few at 6,000' AGL
Temperature
28°C / 82°F
Dewpoint
13°C / 55°F
Heat Index
27°C / 81°F
Humidity
40%
Altimeter
29.95" Hg
Pressure
1014.22 hPa
Previous

1 hour ago

KHST 201956Z AUTO 25008KT 10SM BKN070 27/14 A2996 RMK AO2 SLP149 T02730140
Observed
Apr-20 @ 19:56 UTC
Wind
  • 250° at 8 KTS
Visibility
10 SM
Flight Rules
VFR
Cloud Levels
  • Broken at 7,000' AGL
Temperature
27°C / 81°F
Dewpoint
14°C / 57°F
Heat Index
27°C / 81°F
Humidity
45%
Altimeter
29.96" Hg
Pressure
1014.52 hPa
Previous

2 hours ago

KHST 201856Z AUTO 26007KT 10SM OVC060 26/13 A2998 RMK AO2 SLP156 T02590130
Observed
Apr-20 @ 18:56 UTC
Wind
  • 260° at 7 KTS
Visibility
10 SM
Flight Rules
VFR
Cloud Levels
  • Overcast at 6,000' AGL
Temperature
26°C / 79°F
Dewpoint
13°C / 55°F
Humidity
45%
Altimeter
29.98" Hg
Pressure
1015.22 hPa